Time;durP1;ratioP1;P1;durP2;ratioP2;P2;SDS_P1;SDS_P2;PMS_P1;PMS_P2;Temp;Humidity;BMP_temperature;BMP_pressure;BME280_temperature;BME280_humidity;BME280_pressure;Samples;Min_cycle;Max_cycle;Signal;HPM_P1;HPM_P2
2023/03/03 00:00:41;;;;;;;;;64.25;49.75;;;;;7.91;100.00;101912.97;5102184;27;45246;-72
2023/03/03 00:03:11;;;;;;;;;58.50;42.00;;;;;7.78;100.00;101924.63;5101403;27;47626;-72
2023/03/03 00:05:37;;;;;;;;;69.75;49.75;;;;;7.84;100.00;101939.59;5104767;27;45443;-72
2023/03/03 00:08:03;;;;;;;;;36.50;35.50;;;;;7.89;100.00;101934.72;5096130;27;45229;-72
2023/03/03 00:10:29;;;;;;;;;67.25;52.00;;;;;7.86;100.00;101934.06;5103114;27;45266;-72
2023/03/03 00:12:55;;;;;;;;;67.25;48.50;;;;;7.95;100.00;101928.94;5097149;27;47866;-72
2023/03/03 00:15:24;;;;;;;;;61.25;48.00;;;;;7.87;100.00;101916.88;5102574;27;45477;-73
2023/03/03 00:17:50;;;;;;;;;70.25;52.50;;;;;7.86;100.00;101923.25;5093852;27;45581;-73
2023/03/03 00:20:37;;;;;;;;;66.00;49.75;;;;;7.88;100.00;101929.44;5094782;27;45368;-72
2023/03/03 00:23:18;;;;;;;;;63.50;48.50;;;;;7.86;100.00;101920.53;5103012;27;48268;-72
2023/03/03 00:25:45;;;;;;;;;62.75;48.75;;;;;7.82;100.00;101926.16;5095588;27;45485;-72
2023/03/03 00:28:26;;;;;;;;;63.00;50.75;;;;;7.92;100.00;101941.78;5092091;27;45565;-72
2023/03/03 00:30:53;;;;;;;;;67.75;47.50;;;;;7.66;100.00;101909.22;5098591;27;45309;-72
2023/03/03 00:33:28;;;;;;;;;60.50;46.00;;;;;7.91;100.00;101942.75;5098187;27;48552;-72
2023/03/03 00:35:55;;;;;;;;;63.25;50.50;;;;;7.85;100.00;101951.28;5099167;27;45452;-72
2023/03/03 00:38:20;;;;;;;;;60.00;51.25;;;;;7.66;100.00;101917.34;5098118;27;45362;-72
2023/03/03 00:40:47;;;;;;;;;62.00;49.50;;;;;7.70;100.00;101932.38;5099113;27;45420;-72
2023/03/03 00:43:21;;;;;;;;;66.75;48.50;;;;;7.69;100.00;101941.47;5097605;27;46572;-72
2023/03/03 00:45:51;;;;;;;;;51.25;42.25;;;;;7.60;100.00;101939.34;5100286;27;45206;-72
2023/03/03 00:48:21;;;;;;;;;61.00;48.50;;;;;7.68;100.00;101939.72;5099896;27;45405;-72
2023/03/03 00:50:46;;;;;;;;;61.75;47.00;;;;;7.34;100.00;101878.00;5104370;27;45674;-72
2023/03/03 00:53:17;;;;;;;;;66.50;50.25;;;;;7.63;100.00;101941.88;5101621;27;46617;-72
2023/03/03 00:55:44;;;;;;;;;67.25;51.50;;;;;7.41;100.00;101900.97;5102195;27;45660;-72
2023/03/03 00:58:10;;;;;;;;;59.50;49.00;;;;;7.44;100.00;101914.31;5093883;27;45371;-72
2023/03/03 01:00:36;;;;;;;;;65.50;47.00;;;;;7.60;100.00;101935.78;5102606;27;45523;-72
2023/03/03 01:03:08;;;;;;;;;63.25;47.75;;;;;7.56;100.00;101939.66;5095058;27;45338;-72
2023/03/03 01:05:35;;;;;;;;;70.50;50.50;;;;;7.52;100.00;101932.72;5103169;27;45399;-72
2023/03/03 01:08:01;;;;;;;;;63.25;49.50;;;;;7.42;100.00;101921.63;5095675;27;45494;-72
2023/03/03 01:10:30;;;;;;;;;61.75;47.50;;;;;7.55;100.00;101943.34;5103609;27;45331;-72
2023/03/03 01:12:56;;;;;;;;;68.75;50.50;;;;;7.37;100.00;101911.13;5095556;27;45395;-73
2023/03/03 01:15:22;;;;;;;;;66.00;49.75;;;;;7.53;100.00;101943.41;5103355;27;45272;-72
2023/03/03 01:17:47;;;;;;;;;66.50;51.75;;;;;7.50;100.00;101940.06;5092938;27;45511;-73
2023/03/03 01:20:14;;;;;;;;;62.00;48.75;;;;;7.45;100.00;101926.00;5099755;27;45476;-73
2023/03/03 01:22:40;;;;;;;;;66.75;50.50;;;;;7.38;100.00;101930.91;5093871;27;45772;-73
2023/03/03 01:25:06;;;;;;;;;58.00;47.75;;;;;7.43;100.00;101950.41;5091571;27;45392;-74
2023/03/03 01:27:34;;;;;;;;;66.75;54.75;;;;;7.15;100.00;101899.97;5100421;27;45419;-73
2023/03/03 01:29:59;;;;;;;;;65.50;50.50;;;;;7.29;100.00;101932.38;5095366;27;45497;-73
2023/03/03 01:32:25;;;;;;;;;61.25;49.50;;;;;7.31;100.00;101929.56;5089478;27;46702;-73
2023/03/03 01:34:50;;;;;;;;;65.00;51.50;;;;;7.26;100.00;101926.28;5094870;27;45384;-72
2023/03/03 01:37:16;;;;;;;;;62.50;51.25;;;;;7.32;100.00;101942.97;5097256;27;45277;-71
2023/03/03 01:39:41;;;;;;;;;68.75;50.50;;;;;7.23;100.00;101921.94;5095373;27;46609;-72
2023/03/03 01:42:07;;;;;;;;;63.00;47.00;;;;;7.21;100.00;101923.03;5098267;27;52045;-72
2023/03/03 01:44:33;;;;;;;;;66.25;49.50;;;;;7.27;100.00;101928.91;5096805;27;45365;-72
2023/03/03 01:47:04;;;;;;;;;63.75;49.25;;;;;7.30;100.00;101919.75;5100465;27;45432;-72
2023/03/03 01:49:36;;;;;;;;;65.00;50.75;;;;;7.16;100.00;101892.72;5097903;27;45595;-72
2023/03/03 01:52:11;;;;;;;;;63.25;49.25;;;;;7.34;100.00;101929.38;5099755;27;47055;-72
2023/03/03 01:54:46;;;;;;;;;65.50;49.25;;;;;7.19;100.00;101922.25;5094985;27;45466;-72
2023/03/03 01:57:18;;;;;;;;;71.00;51.75;;;;;7.28;100.00;101932.47;5101426;27;45449;-72
2023/03/03 01:59:48;;;;;;;;;66.50;52.75;;;;;7.29;100.00;101937.78;5094042;27;45331;-72
2023/03/03 02:02:14;;;;;;;;;69.75;51.50;;;;;7.20;100.00;101929.41;5100547;27;46148;-72
2023/03/03 02:04:39;;;;;;;;;67.75;49.50;;;;;7.26;100.00;101937.97;5101787;27;46386;-72
2023/03/03 02:07:09;;;;;;;;;63.00;49.00;;;;;7.22;100.00;101919.34;5102132;27;45392;-72
2023/03/03 02:09:53;;;;;;;;;70.50;52.00;;;;;7.18;100.00;101920.50;5097629;27;45491;-72
2023/03/03 02:12:24;;;;;;;;;63.25;51.50;;;;;7.06;100.00;101897.84;5099689;27;45691;-72
2023/03/03 02:14:49;;;;;;;;;66.00;51.00;;;;;7.06;100.00;101905.94;5093224;27;45301;-72
2023/03/03 02:17:15;;;;;;;;;62.50;49.50;;;;;7.10;100.00;101925.53;5096513;27;45462;-72
2023/03/03 02:20:13;;;;;;;;;62.00;50.50;;;;;7.15;100.00;101928.81;5088020;27;45457;-72
2023/03/03 02:22:58;;;;;;;;;60.50;48.25;;;;;6.99;100.00;101900.06;5086476;27;48391;-72
2023/03/03 02:25:45;;;;;;;;;67.25;50.25;;;;;7.12;100.00;101919.06;5094452;27;45369;-72
2023/03/03 02:28:11;;;;;;;;;71.75;53.75;;;;;7.11;100.00;101927.28;5099258;27;45423;-72
2023/03/03 02:30:39;;;;;;;;;65.00;50.00;;;;;7.00;100.00;101906.34;5094576;27;45572;-72
2023/03/03 02:33:05;;;;;;;;;67.25;48.25;;;;;7.04;100.00;101914.16;5099088;27;46824;-72
2023/03/03 02:35:34;;;;;;;;;66.50;51.00;;;;;6.99;100.00;101908.19;5094753;27;45223;-72
2023/03/03 02:38:17;;;;;;;;;61.00;49.50;;;;;6.89;100.00;101885.41;5096755;27;45379;-72
2023/03/03 02:41:00;;;;;;;;;65.50;52.00;;;;;7.02;100.00;101924.19;5097979;27;45769;-72
2023/03/03 02:43:33;;;;;;;;;70.50;54.25;;;;;7.08;100.00;101927.47;5098580;27;45398;-72
2023/03/03 02:45:58;;;;;;;;;66.00;52.50;;;;;6.87;100.00;101906.22;5099142;27;45265;-72
2023/03/03 02:48:24;;;;;;;;;72.00;53.00;;;;;6.94;100.00;101922.94;5094455;27;45814;-72
2023/03/03 02:50:49;;;;;;;;;63.50;52.25;;;;;6.86;100.00;101919.88;5100336;27;46561;-72
2023/03/03 02:53:14;;;;;;;;;70.75;54.00;;;;;6.68;100.00;101907.47;5101043;27;45211;-72
2023/03/03 02:55:40;;;;;;;;;72.75;55.00;;;;;6.70;100.00;101903.75;5095409;27;45242;-72
2023/03/03 02:58:05;;;;;;;;;65.50;50.50;;;;;6.86;100.00;101928.84;5091190;27;45553;-72
2023/03/03 03:00:31;;;;;;;;;72.25;54.75;;;;;6.55;100.00;101892.06;5099942;27;45457;-72
2023/03/03 03:02:56;;;;;;;;;62.75;47.25;;;;;6.49;100.00;101888.88;5095205;27;46351;-72
2023/03/03 03:05:22;;;;;;;;;72.00;53.67;;;;;6.68;100.00;101913.75;5101944;27;45340;-72
2023/03/03 03:07:47;;;;;;;;;71.25;57.75;;;;;6.54;100.00;101905.66;5096134;27;45452;-72
2023/03/03 03:10:12;;;;;;;;;69.00;56.25;;;;;6.49;100.00;101911.34;5100698;27;45341;-72
2023/03/03 03:12:37;;;;;;;;;74.50;57.00;;;;;6.52;100.00;101924.63;5094171;27;45666;-72
2023/03/03 03:15:03;;;;;;;;;67.25;53.50;;;;;6.54;100.00;101927.25;5102375;27;45335;-72
2023/03/03 03:17:29;;;;;;;;;68.75;54.50;;;;;6.47;100.00;101901.59;5097311;27;45399;-72
2023/03/03 03:19:54;;;;;;;;;75.75;57.50;;;;;6.51;100.00;101906.69;5091671;27;45358;-72
2023/03/03 03:22:19;;;;;;;;;65.25;53.00;;;;;6.55;100.00;101919.06;5098243;27;46240;-72
2023/03/03 03:24:45;;;;;;;;;68.00;53.25;;;;;6.58;100.00;101926.94;5090057;27;45415;-72
2023/03/03 03:27:10;;;;;;;;;76.00;54.75;;;;;6.30;100.00;101880.13;5090816;27;45956;-72
2023/03/03 03:29:35;;;;;;;;;69.00;56.00;;;;;6.27;100.00;101878.53;5096101;27;45407;-72
2023/03/03 03:32:01;;;;;;;;;72.50;55.75;;;;;6.49;100.00;101918.56;5100502;27;46021;-72
2023/03/03 03:34:26;;;;;;;;;71.75;54.50;;;;;6.49;100.00;101914.03;5092093;27;45401;-72
2023/03/03 03:36:51;;;;;;;;;69.00;53.50;;;;;6.33;100.00;101906.97;5101854;27;45527;-72
2023/03/03 03:39:17;;;;;;;;;74.25;57.75;;;;;6.43;100.00;101929.75;5097140;27;45269;-72
2023/03/03 03:41:42;;;;;;;;;74.25;56.50;;;;;6.45;100.00;101931.38;5101528;27;45754;-72
2023/03/03 03:44:07;;;;;;;;;77.25;56.50;;;;;6.34;100.00;101925.75;5096441;27;45289;-72
2023/03/03 03:46:33;;;;;;;;;72.25;56.75;;;;;6.27;100.00;101926.22;5094324;27;45333;-72
2023/03/03 03:48:58;;;;;;;;;72.75;56.75;;;;;6.27;100.00;101928.94;5102599;27;45230;-72
2023/03/03 03:51:23;;;;;;;;;79.50;59.75;;;;;6.31;100.00;101947.53;5105513;27;45328;-72
2023/03/03 03:53:49;;;;;;;;;69.25;51.00;;;;;6.31;100.00;101949.34;5100413;27;45319;-72
2023/03/03 03:56:14;;;;;;;;;74.50;58.00;;;;;6.34;100.00;101949.19;5104128;27;45485;-72
2023/03/03 03:58:40;;;;;;;;;67.75;49.50;;;;;6.24;100.00;101946.16;5105016;27;45425;-72
2023/03/03 04:01:07;;;;;;;;;73.25;58.25;;;;;6.00;100.00;101921.50;5105375;27;45408;-72
2023/03/03 04:03:33;;;;;;;;;74.00;58.25;;;;;6.15;100.00;101938.59;5090005;27;45495;-72
2023/03/03 04:05:58;;;;;;;;;72.25;54.00;;;;;6.10;100.00;101930.78;5105564;27;45473;-72
2023/03/03 04:08:24;;;;;;;;;65.00;51.75;;;;;5.93;100.00;101903.94;5095539;27;45538;-72
2023/03/03 04:10:49;;;;;;;;;69.25;51.25;;;;;6.22;100.00;101958.88;5106043;27;45503;-72
2023/03/03 04:13:15;;;;;;;;;75.50;55.25;;;;;6.16;100.00;101946.63;5093389;27;45305;-73
2023/03/03 04:15:41;;;;;;;;;82.00;58.50;;;;;6.27;100.00;101961.31;5104782;27;45470;-72
2023/03/03 04:18:06;;;;;;;;;75.25;56.50;;;;;6.27;100.00;101955.91;5104081;27;45368;-72
2023/03/03 04:20:32;;;;;;;;;76.50;55.75;;;;;6.11;100.00;101918.16;5093647;27;45368;-73
2023/03/03 04:22:57;;;;;;;;;75.25;56.75;;;;;6.05;100.00;101935.59;5092442;27;45245;-72
2023/03/03 04:25:23;;;;;;;;;82.25;58.25;;;;;6.22;100.00;101959.72;5094926;27;45984;-72
2023/03/03 04:27:48;;;;;;;;;76.75;57.75;;;;;6.17;100.00;101964.53;5098860;27;45443;-73
2023/03/03 04:30:15;;;;;;;;;84.00;56.50;;;;;6.05;100.00;101957.19;5094733;27;45193;-73
2023/03/03 04:32:40;;;;;;;;;67.00;50.50;;;;;5.90;100.00;101951.81;5098032;27;45782;-72
2023/03/03 04:35:07;;;;;;;;;80.50;58.50;;;;;6.02;100.00;101973.53;5096205;27;45191;-71
2023/03/03 04:37:33;;;;;;;;;74.50;58.00;;;;;5.97;100.00;101972.06;5100143;27;45377;-72
2023/03/03 04:39:58;;;;;;;;;82.25;60.75;;;;;5.94;100.00;101954.22;5097261;27;45648;-72
2023/03/03 04:42:23;;;;;;;;;79.25;59.50;;;;;6.08;100.00;101973.16;5102977;27;45483;-72
2023/03/03 04:44:49;;;;;;;;;77.00;59.50;;;;;5.86;100.00;101970.81;5102472;27;46020;-72
2023/03/03 04:47:14;;;;;;;;;71.75;57.00;;;;;6.03;100.00;101979.81;5097853;27;45498;-72
2023/03/03 04:49:39;;;;;;;;;81.75;62.25;;;;;5.89;100.00;101950.94;5098793;27;45371;-71
2023/03/03 04:52:05;;;;;;;;;75.75;56.75;;;;;5.67;100.00;101923.44;5097197;27;45426;-71
2023/03/03 04:54:30;;;;;;;;;75.25;57.25;;;;;5.89;100.00;101961.72;5101521;27;45362;-71
2023/03/03 04:56:56;;;;;;;;;75.75;58.25;;;;;5.81;100.00;101950.47;5100575;27;45540;-72
2023/03/03 04:59:21;;;;;;;;;76.25;56.50;;;;;5.77;100.00;101957.84;5091629;27;46281;-72
2023/03/03 05:01:46;;;;;;;;;87.50;62.75;;;;;5.79;100.00;101953.25;5104286;27;45297;-72
2023/03/03 05:04:12;;;;;;;;;83.25;62.75;;;;;5.86;100.00;101973.53;5086523;27;45380;-72
2023/03/03 05:06:37;;;;;;;;;83.25;64.25;;;;;5.73;100.00;101955.44;5097490;27;45419;-72
2023/03/03 05:09:03;;;;;;;;;78.50;55.25;;;;;5.60;100.00;101932.84;5092561;27;46710;-72
2023/03/03 05:11:28;;;;;;;;;78.50;60.25;;;;;5.70;100.00;101956.47;5104236;27;45519;-72
2023/03/03 05:13:54;;;;;;;;;68.75;53.75;;;;;5.60;100.00;101927.44;5094254;27;45545;-72
2023/03/03 05:16:19;;;;;;;;;80.00;60.50;;;;;5.81;100.00;101955.88;5103436;27;45598;-72
2023/03/03 05:18:44;;;;;;;;;69.75;55.00;;;;;5.82;100.00;101947.69;5100501;27;46079;-72
2023/03/03 05:21:11;;;;;;;;;78.50;59.25;;;;;5.79;100.00;101979.34;5096127;27;45488;-71
2023/03/03 05:23:36;;;;;;;;;82.25;64.50;;;;;5.75;100.00;101977.81;5088064;27;45305;-72
2023/03/03 05:26:02;;;;;;;;;77.75;60.00;;;;;5.74;100.00;101968.84;5094745;27;45543;-71
2023/03/03 05:28:27;;;;;;;;;69.00;55.00;;;;;5.72;100.00;101961.78;5088412;27;45625;-71
2023/03/03 05:30:52;;;;;;;;;71.50;53.25;;;;;5.89;100.00;101982.44;5087840;27;45408;-71
2023/03/03 05:33:18;;;;;;;;;79.75;61.50;;;;;5.96;100.00;101983.81;5095220;27;45439;-71
2023/03/03 05:35:43;;;;;;;;;77.00;58.25;;;;;5.96;100.00;101990.09;5095505;27;45412;-72
2023/03/03 05:38:09;;;;;;;;;72.50;57.50;;;;;5.86;100.00;101968.13;5095580;27;45405;-71
2023/03/03 05:40:35;;;;;;;;;74.25;57.50;;;;;5.89;100.00;101977.91;5095780;27;45356;-71
2023/03/03 05:43:00;;;;;;;;;74.25;57.25;;;;;5.92;100.00;101983.09;5100540;27;45502;-73
2023/03/03 05:45:26;;;;;;;;;76.75;61.00;;;;;5.93;100.00;101992.06;5102990;27;45400;-71
2023/03/03 05:47:52;;;;;;;;;73.00;59.00;;;;;5.94;100.00;101991.13;5101697;27;46410;-73
2023/03/03 05:50:19;;;;;;;;;80.00;61.00;;;;;5.72;100.00;101980.66;5098262;27;45434;-72
2023/03/03 05:52:52;;;;;;;;;80.25;61.50;;;;;5.79;100.00;101991.00;5103252;27;45297;-72
2023/03/03 05:55:17;;;;;;;;;81.00;62.50;;;;;5.52;100.00;101967.44;5099710;27;45434;-71
2023/03/03 05:57:43;;;;;;;;;75.75;57.75;;;;;5.61;100.00;101975.88;5097140;27;46494;-73
2023/03/03 06:00:11;;;;;;;;;86.00;64.50;;;;;5.41;100.00;101981.50;5097249;27;45595;-72
2023/03/03 06:02:36;;;;;;;;;71.00;55.00;;;;;5.28;100.00;101957.06;5098285;27;45467;-72
2023/03/03 06:05:01;;;;;;;;;85.25;63.00;;;;;5.33;100.00;101956.84;5097813;27;45369;-71
2023/03/03 06:07:27;;;;;;;;;85.25;62.50;;;;;5.37;100.00;101961.97;5094828;27;47395;-72
2023/03/03 06:09:52;;;;;;;;;87.00;62.25;;;;;5.36;100.00;101935.09;5097087;27;45441;-72
2023/03/03 06:12:17;;;;;;;;;79.50;61.75;;;;;5.49;100.00;101958.56;5095883;27;45479;-71
2023/03/03 06:14:43;;;;;;;;;83.75;64.00;;;;;5.42;100.00;101957.19;5099533;27;45385;-71
2023/03/03 06:17:09;;;;;;;;;78.00;61.25;;;;;5.58;100.00;101992.22;5100137;27;48502;-71
2023/03/03 06:19:35;;;;;;;;;82.75;62.50;;;;;5.35;100.00;101966.56;5092884;27;45941;-72
2023/03/03 06:22:00;;;;;;;;;85.75;65.00;;;;;5.57;100.00;101992.31;5091126;27;45530;-74
2023/03/03 06:24:29;;;;;;;;;83.25;63.25;;;;;5.58;100.00;101983.28;5086250;27;45657;-72
2023/03/03 06:26:55;;;;;;;;;79.50;60.00;;;;;5.59;100.00;101985.00;5094842;27;46800;-72
2023/03/03 06:29:20;;;;;;;;;86.50;67.25;;;;;5.63;100.00;102010.81;5086341;27;45266;-72
2023/03/03 06:31:46;;;;;;;;;91.00;63.75;;;;;5.44;100.00;101998.41;5098965;27;45368;-72
2023/03/03 06:34:11;;;;;;;;;87.75;63.25;;;;;5.29;100.00;101993.84;5099735;27;45257;-71
2023/03/03 06:36:36;;;;;;;;;83.50;61.25;;;;;5.43;100.00;101996.66;5099347;27;45231;-71
2023/03/03 06:39:02;;;;;;;;;83.00;63.50;;;;;5.28;100.00;102000.19;5090881;27;45256;-72
2023/03/03 06:41:28;;;;;;;;;84.00;64.75;;;;;5.55;100.00;102021.19;5101096;27;45519;-71
2023/03/03 06:43:53;;;;;;;;;86.25;64.50;;;;;5.35;100.00;101993.50;5096666;27;45261;-71
2023/03/03 06:46:19;;;;;;;;;84.75;66.75;;;;;5.54;100.00;102022.16;5100995;27;45352;-72
2023/03/03 06:48:44;;;;;;;;;94.50;67.50;;;;;5.69;100.00;102034.78;5097512;27;45408;-72
2023/03/03 06:51:23;;;;;;;;;80.25;65.00;;;;;5.61;100.00;102034.34;5100459;27;45442;-71
2023/03/03 06:53:52;;;;;;;;;95.00;65.50;;;;;5.51;100.00;102017.78;5097678;27;45231;-72
2023/03/03 06:56:18;;;;;;;;;89.00;67.25;;;;;5.38;100.00;102020.31;5102007;27;46090;-73
2023/03/03 06:58:43;;;;;;;;;94.00;64.25;;;;;5.41;100.00;102033.59;5094678;27;45489;-73
2023/03/03 07:01:16;;;;;;;;;87.75;69.50;;;;;5.57;100.00;102048.91;5101413;27;45406;-71
2023/03/03 07:03:42;;;;;;;;;84.25;63.50;;;;;5.67;100.00;102060.94;5092182;27;45501;-72
2023/03/03 07:06:21;;;;;;;;;88.00;67.25;;;;;5.59;100.00;102052.41;5093873;27;45464;-71
2023/03/03 07:08:46;;;;;;;;;79.00;60.50;;;;;5.69;100.00;102059.91;5092169;27;45386;-73
2023/03/03 07:11:16;;;;;;;;;90.25;64.75;;;;;5.56;100.00;102045.34;5097441;27;45291;-71
2023/03/03 07:13:46;;;;;;;;;89.75;68.00;;;;;5.56;100.00;102049.88;5089637;27;45646;-74
2023/03/03 07:16:14;;;;;;;;;86.25;67.25;;;;;5.69;100.00;102064.44;5101025;27;45379;-71
2023/03/03 07:18:55;;;;;;;;;94.75;69.50;;;;;5.79;100.00;102071.03;5082752;27;45143;-70
2023/03/03 07:21:29;;;;;;;;;89.75;65.50;;;;;5.77;100.00;102081.06;5094942;27;45587;-71
2023/03/03 07:23:56;;;;;;;;;84.00;64.75;;;;;5.86;100.00;102080.53;5089197;27;45454;-73
2023/03/03 07:26:29;;;;;;;;;92.00;65.25;;;;;5.92;100.00;102057.78;5100167;27;46108;-71
2023/03/03 07:28:59;;;;;;;;;80.25;61.75;;;;;6.12;100.00;102082.69;5089388;27;45444;-71
2023/03/03 07:31:37;;;;;;;;;93.50;69.75;;;;;5.91;100.00;102091.13;5098849;27;45487;-72
2023/03/03 07:34:19;;;;;;;;;87.75;66.50;;;;;6.07;100.00;102090.13;5098389;27;45461;-73
2023/03/03 07:36:45;;;;;;;;;83.25;65.25;;;;;6.10;100.00;102095.38;5097814;27;45522;-72
2023/03/03 07:39:31;;;;;;;;;92.00;68.75;;;;;6.05;100.00;102093.91;5097484;27;46168;-71
2023/03/03 07:42:34;;;;;;;;;94.00;69.25;;;;;6.08;100.00;102097.28;5097682;27;45335;-72
2023/03/03 07:44:59;;;;;;;;;87.25;63.50;;;;;6.17;100.00;102102.16;5096766;27;45515;-72
2023/03/03 07:47:28;;;;;;;;;87.50;65.25;;;;;6.11;100.00;102093.56;5099834;27;46663;-71
2023/03/03 07:50:12;;;;;;;;;87.25;67.00;;;;;6.15;100.00;102114.00;5098277;27;45537;-72
2023/03/03 07:52:40;;;;;;;;;89.50;68.25;;;;;5.94;100.00;102088.22;5098199;27;45418;-73
2023/03/03 07:55:34;;;;;;;;;83.50;63.25;;;;;5.67;100.00;102080.69;5104227;27;45423;-72
2023/03/03 07:58:11;;;;;;;;;94.50;70.50;;;;;6.11;100.00;102121.41;5092291;27;46367;-72
2023/03/03 08:01:04;;;;;;;;;90.00;68.00;;;;;6.18;100.00;102120.09;5087890;27;45251;-72
2023/03/03 08:03:33;;;;;;;;;93.25;70.00;;;;;6.16;100.00;102097.72;5093026;27;45309;-73
2023/03/03 08:06:08;;;;;;;;;69.50;59.00;;;;;6.10;100.00;102098.06;5105724;27;45419;-70
2023/03/03 08:08:35;;;;;;;;;94.25;65.00;;;;;6.30;100.00;102110.44;5093797;27;45573;-71
2023/03/03 08:11:02;;;;;;;;;94.75;70.00;;;;;6.37;100.00;102119.03;5104697;27;45162;-72
2023/03/03 08:13:28;;;;;;;;;94.00;68.50;;;;;6.49;100.00;102134.56;5102399;27;45333;-72
2023/03/03 08:16:17;;;;;;;;;84.25;65.50;;;;;6.54;100.00;102127.03;5089165;27;45491;-71
2023/03/03 08:18:46;;;;;;;;;88.25;63.25;;;;;6.54;100.00;102136.03;5087486;27;45493;-72
2023/03/03 08:21:13;;;;;;;;;89.00;68.75;;;;;6.21;100.00;102136.09;5086275;27;45294;-71
2023/03/03 08:23:39;;;;;;;;;89.00;65.50;;;;;6.54;100.00;102138.72;5089013;27;45334;-72
2023/03/03 08:26:05;;;;;;;;;88.25;67.00;;;;;6.49;100.00;102132.72;5083934;27;45580;-71
2023/03/03 08:28:30;;;;;;;;;93.75;68.50;;;;;6.52;100.00;102127.13;5089279;27;45502;-74
2023/03/03 08:30:56;;;;;;;;;94.50;68.25;;;;;6.55;100.00;102129.66;5103855;27;45375;-70
2023/03/03 08:33:21;;;;;;;;;93.00;68.50;;;;;6.49;100.00;102118.34;5100616;27;45509;-70
2023/03/03 08:35:47;;;;;;;;;90.25;66.75;;;;;6.57;100.00;102134.97;5098037;27;45347;-71
2023/03/03 08:38:16;;;;;;;;;91.75;68.75;;;;;6.60;100.00;102129.38;5100273;27;47962;-71
2023/03/03 08:40:42;;;;;;;;;97.25;74.50;;;;;6.91;100.00;102137.44;5104045;27;45419;-72
2023/03/03 08:43:07;;;;;;;;;90.25;67.50;;;;;6.96;100.00;102140.72;5100288;27;45932;-72
2023/03/03 08:45:34;;;;;;;;;92.25;69.00;;;;;7.01;100.00;102129.66;5089042;27;45387;-72
2023/03/03 08:48:00;;;;;;;;;76.25;62.25;;;;;7.10;100.00;102131.78;5101608;27;45492;-71
2023/03/03 08:50:27;;;;;;;;;95.75;69.50;;;;;7.20;100.00;102134.81;5098544;27;45411;-72
2023/03/03 08:52:53;;;;;;;;;88.50;67.50;;;;;7.02;100.00;102131.38;5095889;27;45468;-71
2023/03/03 08:55:18;;;;;;;;;83.00;63.25;;;;;7.05;100.00;102155.53;5097206;27;45328;-70
2023/03/03 08:57:44;;;;;;;;;89.00;68.00;;;;;7.04;100.00;102127.63;5100109;27;47436;-72
2023/03/03 09:00:13;;;;;;;;;90.50;67.75;;;;;7.26;100.00;102148.81;5097487;27;45252;-72
2023/03/03 09:02:39;;;;;;;;;89.00;68.50;;;;;7.39;100.00;102146.22;5095483;27;45499;-72
2023/03/03 09:05:06;;;;;;;;;85.00;66.00;;;;;7.66;100.00;102131.03;5098636;27;45431;-73
2023/03/03 09:07:32;;;;;;;;;87.00;63.50;;;;;7.66;100.00;102139.16;5095431;27;45373;-73
2023/03/03 09:09:57;;;;;;;;;77.00;61.00;;;;;7.43;100.00;102139.69;5096434;27;45414;-72
2023/03/03 09:12:32;;;;;;;;;84.75;60.75;;;;;7.36;100.00;102122.97;5098363;27;45773;-72
2023/03/03 09:14:59;;;;;;;;;78.75;56.50;;;;;7.64;100.00;102114.00;5096938;27;45425;-72
2023/03/03 09:17:36;;;;;;;;;80.25;62.00;;;;;7.35;100.00;102101.44;5099371;27;45516;-73
2023/03/03 09:20:21;;;;;;;;;85.00;65.75;;;;;7.86;100.00;102100.00;5087824;27;45218;-72
2023/03/03 09:22:48;;;;;;;;;80.50;61.50;;;;;8.53;100.00;102155.22;5092682;27;45399;-72
2023/03/03 09:25:35;;;;;;;;;82.00;60.25;;;;;8.63;100.00;102139.19;5101789;27;45403;-73
2023/03/03 09:28:03;;;;;;;;;85.00;61.50;;;;;8.83;100.00;102136.06;5090888;27;45572;-72
2023/03/03 09:30:36;;;;;;;;;72.00;55.00;;;;;8.56;100.00;102134.19;5091628;27;45319;-73
2023/03/03 09:33:21;;;;;;;;;85.75;63.50;;;;;8.58;100.00;102148.50;5094354;27;45494;-73
2023/03/03 09:35:50;;;;;;;;;67.75;54.75;;;;;7.97;100.00;102118.22;5095454;27;45347;-72
2023/03/03 09:38:31;;;;;;;;;68.50;50.00;;;;;8.23;100.00;102158.06;5095936;27;47882;-72
2023/03/03 09:41:03;;;;;;;;;72.00;54.75;;;;;8.21;100.00;102160.84;5095485;27;45503;-72
2023/03/03 09:44:06;;;;;;;;;73.25;59.00;;;;;8.49;100.00;102162.66;5098836;27;45777;-72
2023/03/03 09:46:53;;;;;;;;;79.50;59.25;;;;;8.06;100.00;102161.81;5090202;27;45250;-72
2023/03/03 09:49:34;;;;;;;;;72.75;56.75;;;;;8.20;100.00;102155.53;5098975;27;45779;-71
2023/03/03 09:52:08;;;;;;;;;77.00;56.25;;;;;8.41;100.00;102159.56;5101045;27;45745;-72
2023/03/03 09:55:01;;;;;;;;;68.75;50.25;;;;;8.45;100.00;102158.44;5095819;27;45365;-72
2023/03/03 09:57:54;;;;;;;;;74.50;57.50;;;;;8.39;100.00;102172.38;5102758;27;45486;-72
2023/03/03 10:00:42;;;;;;;;;73.00;54.00;;;;;8.54;100.00;102168.66;5098169;27;45544;-72
2023/03/03 10:03:45;;;;;;;;;77.75;56.75;;;;;8.74;100.00;102169.19;5100496;27;45395;-71
2023/03/03 10:06:29;;;;;;;;;79.00;56.00;;;;;8.35;100.00;102165.41;5096077;27;45426;-71
2023/03/03 10:09:32;;;;;;;;;70.00;54.25;;;;;8.18;100.00;102171.03;5099567;27;45483;-72
2023/03/03 10:12:13;;;;;;;;;75.75;59.00;;;;;8.38;100.00;102148.09;5110850;27;47581;-72
2023/03/03 10:14:48;;;;;;;;;63.50;50.75;;;;;8.45;100.00;102174.69;5097699;27;45433;-73
2023/03/03 10:17:34;;;;;;;;;68.50;49.50;;;;;8.79;100.00;102180.56;5096367;27;45450;-71
2023/03/03 10:20:08;;;;;;;;;66.50;51.75;;;;;8.98;100.00;102183.81;5094944;27;45255;-73
2023/03/03 10:22:41;;;;;;;;;49.25;44.50;;;;;8.82;100.00;102173.13;5095021;27;45719;-72
2023/03/03 10:25:28;;;;;;;;;77.00;55.00;;;;;9.04;100.00;102187.94;5093823;27;45463;-73
2023/03/03 10:28:12;;;;;;;;;74.25;55.25;;;;;9.07;100.00;102185.00;5099055;27;45420;-71
2023/03/03 10:30:52;;;;;;;;;72.25;54.75;;;;;9.26;100.00;102177.38;5086927;27;45539;-73
2023/03/03 10:33:33;;;;;;;;;75.50;54.50;;;;;9.17;100.00;102162.59;5097028;27;46767;-72
2023/03/03 10:36:07;;;;;;;;;70.25;55.50;;;;;9.48;100.00;102187.63;5114508;27;45668;-71
2023/03/03 10:39:15;;;;;;;;;64.25;51.00;;;;;9.49;100.00;102189.34;5090535;27;45524;-72
2023/03/03 10:41:55;;;;;;;;;67.75;48.75;;;;;9.39;100.00;102191.81;5093137;27;45304;-72
2023/03/03 10:44:33;;;;;;;;;63.75;43.50;;;;;9.33;100.00;102195.84;5098328;27;46510;-71
2023/03/03 10:47:30;;;;;;;;;67.00;47.50;;;;;9.40;100.00;102189.97;5098190;27;45398;-71
2023/03/03 10:50:16;;;;;;;;;71.00;53.75;;;;;9.63;100.00;102181.13;5095054;27;45313;-72
2023/03/03 10:52:48;;;;;;;;;74.75;52.25;;;;;9.73;100.00;102183.06;5100671;27;45422;-73
2023/03/03 10:55:31;;;;;;;;;70.75;54.50;;;;;9.71;100.00;102189.59;5098516;27;46735;-72
2023/03/03 10:58:05;;;;;;;;;73.00;49.00;;;;;9.45;100.00;102161.56;5095286;27;45565;-72
2023/03/03 11:00:42;;;;;;;;;70.50;52.75;;;;;9.49;100.00;102159.50;5100070;27;45407;-73
2023/03/03 11:03:30;;;;;;;;;67.25;51.00;;;;;9.84;100.00;102186.88;5092443;27;45462;-73
2023/03/03 11:06:10;;;;;;;;;78.25;56.75;;;;;9.75;100.00;102194.69;5098223;27;45346;-72
2023/03/03 11:08:38;;;;;;;;;71.00;54.00;;;;;9.37;100.00;102170.22;5099569;27;45336;-73
2023/03/03 11:11:28;;;;;;;;;62.25;47.75;;;;;9.38;100.00;102190.94;5086991;27;45320;-72
2023/03/03 11:14:02;;;;;;;;;55.25;45.75;;;;;9.29;100.00;102188.88;5100349;27;45536;-73
2023/03/03 11:17:15;;;;;;;;;68.75;52.00;;;;;9.57;100.00;102187.81;5094804;27;47727;-72
2023/03/03 11:19:58;;;;;;;;;68.75;52.50;;;;;9.85;100.00;102177.75;5063796;27;45478;-73
2023/03/03 11:22:49;;;;;;;;;67.75;50.50;;;;;9.97;100.00;102169.59;5092263;27;45317;-73
2023/03/03 11:25:26;;;;;;;;;74.50;52.75;;;;;10.22;100.00;102173.31;5095066;27;45589;-73